createdAt,value
2018-04-14T00:06:58.164Z,11.44
2018-04-14T00:16:58.127Z,11.5
2018-04-14T00:26:58.155Z,11.57
2018-04-14T00:36:58.104Z,11.59
2018-04-14T00:46:58.183Z,11.57
2018-04-14T00:56:58.152Z,11.74
2018-04-14T01:06:58.235Z,11.83
2018-04-14T01:16:58.205Z,11.93
2018-04-14T01:26:58.249Z,11.97
2018-04-14T01:36:58.235Z,11.96
2018-04-14T01:46:58.179Z,11.97
2018-04-14T01:56:58.213Z,11.96
2018-04-14T02:06:58.166Z,11.94
2018-04-14T02:16:58.260Z,11.94
2018-04-14T02:26:58.233Z,11.94
2018-04-14T02:36:58.286Z,11.9
2018-04-14T02:46:58.259Z,11.85
2018-04-14T02:56:58.295Z,11.7
2018-04-14T03:06:58.246Z,11.49
2018-04-14T03:16:58.332Z,11.49
2018-04-14T03:26:58.263Z,11.54
2018-04-14T03:36:58.323Z,11.64
2018-04-14T03:46:58.330Z,11.56
2018-04-14T03:56:58.270Z,11.56
2018-04-14T04:06:58.318Z,11.59
2018-04-14T04:16:58.298Z,11.57
2018-04-14T04:26:58.377Z,11.49
2018-04-14T04:36:58.326Z,11.47
2018-04-14T04:46:58.599Z,11.36
2018-04-14T04:56:58.330Z,11.31
2018-04-14T05:06:58.381Z,11.19
2018-04-14T05:16:58.361Z,11.07
2018-04-14T05:26:58.438Z,11.11
2018-04-14T05:36:58.375Z,11.07
2018-04-14T05:46:58.452Z,11.14
2018-04-14T05:56:58.418Z,11.17
2018-04-14T06:06:58.507Z,11.35
2018-04-14T06:16:58.436Z,11.62
2018-04-14T06:26:58.470Z,11.77
2018-04-14T06:36:58.447Z,12.08
2018-04-14T06:46:58.397Z,12.51
2018-04-14T06:56:58.486Z,12.93
2018-04-14T07:06:58.448Z,13.29
2018-04-14T07:16:58.487Z,13.24
2018-04-14T07:26:58.496Z,13.36
2018-04-14T07:36:58.574Z,14.19
2018-04-14T07:46:58.473Z,14.28
2018-04-14T07:56:58.568Z,14.09
2018-04-14T08:06:58.515Z,14.68
2018-04-14T08:16:58.599Z,14.99
2018-04-14T08:26:58.590Z,15.57
2018-04-14T08:36:58.606Z,15.43
2018-04-14T08:46:58.592Z,15.23
2018-04-14T08:56:58.669Z,15.79
2018-04-14T09:06:59.788Z,15.79
2018-04-14T09:16:59.731Z,15.31
2018-04-14T09:26:58.618Z,15.45
2018-04-14T09:37:00.224Z,15.35
2018-04-14T09:46:58.681Z,15.92
2018-04-14T09:56:58.961Z,15.78
2018-04-14T10:06:58.787Z,16.03
2018-04-14T10:16:58.901Z,16.11
2018-04-14T10:26:59.372Z,16.34
2018-04-14T10:36:59.671Z,15.96
2018-04-14T10:46:58.721Z,15.93
2018-04-14T10:56:58.702Z,16.74
2018-04-14T11:06:58.733Z,16.56
2018-04-14T11:16:58.721Z,16.45
2018-04-14T11:26:58.753Z,16.59
2018-04-14T11:36:58.814Z,16.8
2018-04-14T11:46:58.784Z,17.32
2018-04-14T11:56:58.736Z,17.3
2018-04-14T12:07:05.476Z,17.84
2018-04-14T12:16:58.944Z,18.39
2018-04-14T12:26:58.799Z,18.55
2018-04-14T12:36:58.739Z,18.72
2018-04-14T12:46:58.830Z,17.97
2018-04-14T12:56:58.785Z,17.85
2018-04-14T13:06:58.746Z,17.51
2018-04-14T13:17:02.690Z,17.29
2018-04-14T13:26:59.784Z,17.55
2018-04-14T13:36:58.858Z,17.25
2018-04-14T13:46:58.844Z,17.48
2018-04-14T13:56:58.852Z,17.35
2018-04-14T14:06:58.802Z,17.3
2018-04-14T14:16:58.796Z,17.33
2018-04-14T14:26:58.889Z,17.82
2018-04-14T14:36:58.772Z,17.71
2018-04-14T14:46:58.749Z,17.66
2018-04-14T14:56:58.782Z,17.43
2018-04-14T15:06:59.206Z,17.47
2018-04-14T15:16:58.888Z,17.53
2018-04-14T15:26:59.066Z,17.32
2018-04-14T15:37:00.040Z,17.07
2018-04-14T15:46:59.347Z,17.11
2018-04-14T15:56:59.215Z,17.08
2018-04-14T16:06:58.821Z,16.8
2018-04-14T16:16:58.886Z,16.35
2018-04-14T16:26:58.821Z,16.34
2018-04-14T16:37:00.208Z,16.89
2018-04-14T16:46:58.851Z,16.88
2018-04-14T16:56:58.924Z,16.4
2018-04-14T17:07:16.941Z,15.75
2018-04-14T17:16:58.743Z,15.45
2018-04-14T17:26:58.847Z,15.08
2018-04-14T17:36:58.807Z,14.88
2018-04-14T17:47:07.405Z,14.61
2018-04-14T17:56:58.807Z,14.34
2018-04-14T18:06:58.855Z,14.16
2018-04-14T18:16:58.843Z,13.96
2018-04-14T18:26:58.804Z,13.51
2018-04-14T18:36:58.831Z,13.4
2018-04-14T18:46:58.857Z,13.32
2018-04-14T18:56:58.909Z,13.09
2018-04-14T19:06:58.972Z,13
2018-04-14T19:16:59.003Z,12.88
2018-04-14T19:26:59.026Z,12.81
2018-04-14T19:36:58.822Z,12.57
2018-04-14T19:46:58.947Z,12.6
2018-04-14T19:56:58.920Z,12.7
2018-04-14T20:06:59.393Z,12.54
2018-04-14T20:16:58.941Z,12.37
2018-04-14T20:26:58.823Z,12.27
2018-04-14T20:36:58.897Z,11.9
2018-04-14T20:46:58.889Z,11.82
2018-04-14T20:56:59.030Z,11.61
2018-04-14T21:06:59.026Z,11.61
2018-04-14T21:16:59.554Z,11.31
2018-04-14T21:26:59.939Z,11.5
2018-04-14T21:36:58.896Z,11.38
2018-04-14T21:46:58.954Z,11.53
2018-04-14T21:56:59.278Z,11.54
2018-04-14T22:06:59.390Z,11.47
2018-04-14T22:16:59.813Z,11.53
2018-04-14T22:26:59.275Z,11.46
2018-04-14T22:37:00.941Z,11.47
2018-04-14T22:46:58.938Z,11.59
2018-04-14T22:56:59.066Z,11.64
2018-04-14T23:06:59.034Z,11.53
2018-04-14T23:16:59.667Z,11.38
2018-04-14T23:27:00.078Z,11.46
2018-04-14T23:37:05.130Z,11.54
2018-04-14T23:46:59.260Z,11.43
2018-04-14T23:57:01.170Z,11.44
